Time;durP1;ratioP1;P1;durP2;ratioP2;P2;SDS_P1;SDS_P2;PMS_P1;PMS_P2;Temp;Humidity;BMP_temperature;BMP_pressure;BME280_temperature;BME280_humidity;BME280_pressure;Samples;Min_cycle;Max_cycle;Signal;HPM_P1;HPM_P2
2021/12/30 00:00:18;;;;;;;259.23;137.85;;;;;;;8.24;100.00;99564.41;4821428;29;20127;-64
2021/12/30 00:03:01;;;;;;;246.93;134.77;;;;;;;8.23;100.00;99570.38;4823712;29;20578;-64
2021/12/30 00:05:52;;;;;;;255.93;136.77;;;;;;;8.21;100.00;99579.84;4805862;29;20065;-64
2021/12/30 00:08:35;;;;;;;254.13;134.40;;;;;;;8.30;100.00;99575.47;4809067;29;20057;-64
2021/12/30 00:11:23;;;;;;;249.80;135.30;;;;;;;8.32;100.00;99573.78;4807895;29;20074;-63
2021/12/30 00:14:05;;;;;;;249.05;134.77;;;;;;;8.38;100.00;99573.72;4815368;29;20118;-64
2021/12/30 00:16:54;;;;;;;248.35;133.05;;;;;;;8.33;100.00;99566.94;4818367;29;20046;-64
2021/12/30 00:19:37;;;;;;;255.88;136.38;;;;;;;8.26;100.00;99563.53;4812566;29;20065;-64
2021/12/30 00:22:28;;;;;;;243.40;129.02;;;;;;;8.28;100.00;99566.09;4813931;29;20054;-63
2021/12/30 00:25:11;;;;;;;245.48;131.20;;;;;;;8.19;100.00;99558.44;4812122;29;20153;-63
2021/12/30 00:27:58;;;;;;;247.52;130.23;;;;;;;8.14;100.00;99558.47;4815683;29;20492;-64
2021/12/30 00:30:42;;;;;;;246.88;130.65;;;;;;;8.27;100.00;99566.94;4829776;29;20054;-63
2021/12/30 00:33:34;;;;;;;230.85;126.30;;;;;;;8.34;100.00;99564.38;4820819;29;20063;-64
2021/12/30 00:36:16;;;;;;;240.90;126.50;;;;;;;8.34;100.00;99568.66;4812441;29;20746;-64
2021/12/30 00:39:05;;;;;;;245.95;123.70;;;;;;;8.35;100.00;99567.78;4812057;29;20050;-64
2021/12/30 00:41:54;;;;;;;227.23;123.32;;;;;;;8.42;100.00;99580.56;4829690;29;20058;-64
2021/12/30 00:44:43;;;;;;;247.18;122.45;;;;;;;8.32;100.00;99575.50;4827327;29;20383;-64
2021/12/30 00:47:25;;;;;;;228.48;123.03;;;;;;;8.20;100.00;99580.69;4827237;29;20140;-64
2021/12/30 00:50:14;;;;;;;237.98;122.57;;;;;;;8.29;100.00;99583.19;4831848;29;20050;-63
2021/12/30 00:52:58;;;;;;;220.33;121.40;;;;;;;8.48;100.00;99583.94;4834499;29;20050;-64
2021/12/30 00:55:49;;;;;;;226.35;120.88;;;;;;;8.36;100.00;99585.75;4812309;29;20555;-64
2021/12/30 00:58:33;;;;;;;239.05;120.00;;;;;;;8.29;100.00;99586.63;4829628;29;20065;-64
2021/12/30 01:01:29;;;;;;;216.05;120.43;;;;;;;8.35;100.00;99584.03;4822527;29;20421;-64
2021/12/30 01:04:20;;;;;;;222.02;117.75;;;;;;;8.26;100.00;99583.22;4810225;29;20054;-64
2021/12/30 01:07:01;;;;;;;240.23;118.85;;;;;;;8.24;100.00;99587.50;4829873;29;20129;-64
2021/12/30 01:09:50;;;;;;;224.25;116.28;;;;;;;8.32;100.00;99593.47;4823027;29;20054;-63
2021/12/30 01:12:41;;;;;;;222.77;115.43;;;;;;;8.28;100.00;99597.75;4809363;29;20054;-64
2021/12/30 01:15:45;;;;;;;234.25;117.70;;;;;;;8.18;100.00;99606.34;4813557;29;20042;-64
2021/12/30 01:18:56;;;;;;;213.77;118.03;;;;;;;8.29;100.00;99614.00;4810110;29;20061;-64
2021/12/30 01:21:44;;;;;;;222.23;117.50;;;;;;;8.15;100.00;99610.63;4826964;29;20629;-64
2021/12/30 01:24:33;;;;;;;219.23;115.68;;;;;;;8.08;100.00;99604.69;4823626;29;20611;-64
2021/12/30 01:27:16;;;;;;;225.45;118.07;;;;;;;8.02;100.00;99609.88;4828244;29;20049;-64
2021/12/30 01:30:09;;;;;;;221.00;115.18;;;;;;;8.16;100.00;99613.19;4826064;29;20141;-64
2021/12/30 01:32:52;;;;;;;221.25;113.53;;;;;;;8.30;100.00;99615.72;4828152;29;20796;-64
2021/12/30 01:35:47;;;;;;;220.55;115.03;;;;;;;8.28;100.00;99622.56;4802653;29;20054;-65
2021/12/30 01:38:28;;;;;;;216.02;114.40;;;;;;;8.50;100.00;99613.91;4813253;29;20417;-64
2021/12/30 01:41:16;;;;;;;218.48;116.72;;;;;;;8.51;100.00;99622.44;4826019;29;20133;-64
2021/12/30 01:44:05;;;;;;;215.55;113.50;;;;;;;8.38;100.00;99635.34;4826815;29;20471;-64
2021/12/30 01:47:02;;;;;;;222.05;112.97;;;;;;;8.34;100.00;99638.81;4821857;29;20047;-65
2021/12/30 01:49:37;;;;;;;209.18;109.75;;;;;;;8.31;100.00;99638.81;4830075;29;20065;-64
2021/12/30 01:52:25;;;;;;;213.65;112.35;;;;;;;8.35;100.00;99649.94;4825840;29;20127;-65
2021/12/30 01:55:15;;;;;;;224.88;113.82;;;;;;;8.35;100.00;99655.91;4829010;29;20392;-64
2021/12/30 01:58:10;;;;;;;207.38;110.72;;;;;;;8.39;100.00;99652.47;4794266;29;20046;-64
2021/12/30 02:00:48;;;;;;;211.65;110.43;;;;;;;8.34;100.00;99656.78;4817927;29;20126;-65
2021/12/30 02:03:43;;;;;;;211.10;111.90;;;;;;;8.38;100.00;99670.47;4830219;29;20057;-64
2021/12/30 02:06:19;;;;;;;201.77;109.10;;;;;;;8.23;100.00;99683.31;4834868;29;20053;-64
2021/12/30 02:09:07;;;;;;;216.63;108.80;;;;;;;8.15;100.00;99677.34;4835418;29;20129;-65
2021/12/30 02:11:49;;;;;;;214.95;107.03;;;;;;;8.15;100.00;99682.50;4822556;29;20141;-65
2021/12/30 02:14:45;;;;;;;200.32;106.57;;;;;;;8.07;100.00;99687.66;4813507;29;20061;-64
2021/12/30 02:17:33;;;;;;;204.30;105.82;;;;;;;8.11;100.00;99691.94;4817850;29;20046;-65
2021/12/30 02:20:45;;;;;;;200.32;106.50;;;;;;;8.26;100.00;99701.28;4817868;29;20058;-65
2021/12/30 02:23:32;;;;;;;202.50;107.47;;;;;;;8.24;100.00;99706.41;4817023;29;20047;-64
2021/12/30 02:26:24;;;;;;;209.23;104.63;;;;;;;8.21;100.00;99708.16;4799484;29;20559;-64
2021/12/30 02:29:07;;;;;;;192.25;103.55;;;;;;;8.19;100.00;99715.00;4799426;29;20127;-65
2021/12/30 02:31:56;;;;;;;200.00;103.15;;;;;;;8.35;100.00;99711.53;4780928;29;20128;-64
2021/12/30 02:34:38;;;;;;;194.48;100.03;;;;;;;8.51;100.00;99720.88;4820234;29;20065;-65
2021/12/30 02:37:27;;;;;;;185.07;99.05;;;;;;;8.70;100.00;99717.34;4798800;29;20055;-64
2021/12/30 02:40:10;;;;;;;193.55;99.60;;;;;;;8.85;100.00;99718.97;4815937;29;20054;-64
2021/12/30 02:42:58;;;;;;;190.63;98.82;;;;;;;8.88;100.00;99718.94;4828924;29;20073;-64
2021/12/30 02:45:40;;;;;;;182.40;98.00;;;;;;;9.13;100.00;99719.63;4822190;29;20129;-65
2021/12/30 02:48:32;;;;;;;177.90;95.28;;;;;;;9.21;100.00;99733.28;4824744;29;20046;-64
2021/12/30 02:51:14;;;;;;;187.95;94.95;;;;;;;9.15;100.00;99734.19;4808024;29;20625;-64
2021/12/30 02:54:03;;;;;;;194.00;92.90;;;;;;;9.33;100.00;99746.06;4825308;29;20054;-64
2021/12/30 02:56:46;;;;;;;176.80;91.88;;;;;;;9.39;100.00;99751.13;4823598;29;20054;-64
2021/12/30 02:59:35;;;;;;;179.32;91.20;;;;;;;9.33;100.00;99750.34;4826940;29;20057;-65
2021/12/30 03:02:17;;;;;;;170.10;87.80;;;;;;;9.34;100.00;99755.44;4825357;29;20489;-64
2021/12/30 03:05:06;;;;;;;163.95;88.47;;;;;;;9.45;100.00;99758.78;4826094;29;20061;-64
2021/12/30 03:07:48;;;;;;;173.63;89.13;;;;;;;9.42;100.00;99758.81;4823252;29;20050;-65
2021/12/30 03:10:36;;;;;;;177.27;88.75;;;;;;;9.48;100.00;99763.06;4825797;29;20057;-64
2021/12/30 03:13:25;;;;;;;172.37;90.07;;;;;;;9.50;100.00;99772.47;4825235;29;20054;-65
2021/12/30 03:16:23;;;;;;;180.55;88.47;;;;;;;9.68;100.00;99776.59;4823913;29;20050;-64
2021/12/30 03:18:59;;;;;;;166.98;87.28;;;;;;;9.93;100.00;99779.81;4830486;29;20130;-64
2021/12/30 03:21:48;;;;;;;181.20;90.32;;;;;;;9.88;100.00;99781.59;4805538;29;20054;-64
2021/12/30 03:24:30;;;;;;;176.32;88.90;;;;;;;9.96;100.00;99792.66;4821973;29;20046;-64
2021/12/30 03:27:19;;;;;;;181.45;88.38;;;;;;;10.03;100.00;99786.56;4815718;29;20062;-64
2021/12/30 03:30:00;;;;;;;177.15;88.75;;;;;;;10.17;100.00;99789.88;4816716;29;20502;-63
2021/12/30 03:32:56;;;;;;;176.43;89.78;;;;;;;10.42;100.00;99795.63;4816259;29;20137;-63
2021/12/30 03:35:32;;;;;;;173.77;89.20;;;;;;;10.95;100.00;99794.09;4824558;29;20064;-64
2021/12/30 03:38:27;;;;;;;177.77;87.80;;;;;;;11.12;100.00;99797.28;4820452;29;20118;-64
2021/12/30 03:41:06;;;;;;;166.95;89.43;;;;;;;11.47;100.00;99799.34;4817277;29;20463;-64
2021/12/30 03:44:00;;;;;;;160.32;85.63;;;;;;;11.78;100.00;99804.91;4818202;29;20448;-64
2021/12/30 03:46:52;;;;;;;175.68;87.88;;;;;;;12.21;100.00;99808.41;4834230;29;20378;-64
2021/12/30 03:49:35;;;;;;;174.07;89.97;;;;;;;12.15;100.00;99818.00;4802274;29;20153;-62
2021/12/30 03:52:29;;;;;;;170.75;85.80;;;;;;;12.21;99.37;99821.31;4822026;29;20059;-63
2021/12/30 03:55:18;;;;;;;161.70;83.38;;;;;;;12.41;99.09;99815.81;4823068;29;20768;-63
2021/12/30 03:58:00;;;;;;;155.40;85.78;;;;;;;12.48;96.34;99822.56;4825973;29;20050;-63
2021/12/30 04:00:50;;;;;;;182.40;88.30;;;;;;;12.79;96.06;99819.34;4833211;29;20696;-64
2021/12/30 04:03:39;;;;;;;160.60;86.20;;;;;;;12.96;94.46;99822.44;4818373;29;20066;-64
2021/12/30 04:06:21;;;;;;;177.15;89.70;;;;;;;12.90;93.69;99825.16;4826256;29;20137;-63
2021/12/30 04:09:12;;;;;;;167.07;87.20;;;;;;;12.65;94.48;99848.94;4820951;29;20046;-63
2021/12/30 04:11:55;;;;;;;157.85;85.70;;;;;;;12.65;93.53;99859.28;4824501;29;20050;-63
2021/12/30 04:14:50;;;;;;;172.38;90.00;;;;;;;12.65;92.68;99864.44;4821670;29;20054;-64
2021/12/30 04:17:38;;;;;;;;;;;;;;;12.84;92.08;99858.91;4812403;29;20050;-64
2021/12/30 04:20:25;;;;;;;173.10;89.60;;;;;;;13.51;91.79;99862.66;4818713;29;19928;-64
2021/12/30 04:23:08;;;;;;;171.98;91.97;;;;;;;13.66;88.84;99867.47;4830415;29;20139;-64
2021/12/30 04:25:56;;;;;;;171.02;89.68;;;;;;;14.20;86.22;99873.06;4828443;29;20777;-64
2021/12/30 04:28:39;;;;;;;185.57;91.90;;;;;;;14.57;84.19;99878.16;4824532;29;20866;-64
2021/12/30 04:31:27;;;;;;;200.32;91.53;;;;;;;14.65;81.01;99878.81;4798586;29;21337;-64
2021/12/30 04:34:09;;;;;;;158.80;88.50;;;;;;;15.23;78.74;99882.34;4819894;29;20149;-64
2021/12/30 04:37:00;;;;;;;164.48;85.85;;;;;;;15.83;75.94;99881.38;4827452;29;20054;-65
2021/12/30 04:39:42;;;;;;;159.77;85.20;;;;;;;16.24;73.32;99872.22;4806126;29;20070;-65
2021/12/30 04:42:31;;;;;;;168.95;89.10;;;;;;;16.44;71.14;99865.41;4826312;29;20065;-65
2021/12/30 04:45:13;;;;;;;182.30;89.82;;;;;;;15.81;74.70;99863.22;4822266;29;20050;-65
2021/12/30 04:48:03;;;;;;;171.85;89.85;;;;;;;15.73;74.41;99862.63;4786523;29;20054;-64
2021/12/30 04:50:46;;;;;;;165.70;85.07;;;;;;;15.83;74.89;99858.81;4822741;29;20065;-63
2021/12/30 04:53:35;;;;;;;158.20;84.03;;;;;;;16.43;74.02;99855.94;4808743;29;20069;-64
2021/12/30 04:56:24;;;;;;;162.20;81.25;;;;;;;15.93;74.00;99867.19;4824492;29;20050;-64
2021/12/30 04:59:06;;;;;;;142.98;77.65;;;;;;;15.67;72.83;99858.47;4811631;29;20061;-64
2021/12/30 05:02:01;;;;;;;168.00;80.20;;;;;;;15.47;74.45;99858.22;4824594;29;20054;-65
2021/12/30 05:04:37;;;;;;;149.77;79.55;;;;;;;15.81;73.51;99864.97;4807746;29;20057;-65
2021/12/30 05:07:32;;;;;;;149.57;78.88;;;;;;;15.60;74.89;99872.56;4809343;29;20046;-64
2021/12/30 05:10:07;;;;;;;148.23;79.82;;;;;;;16.03;73.26;99871.19;4828379;29;20050;-64
2021/12/30 05:13:01;;;;;;;147.35;74.15;;;;;;;16.03;72.52;99866.00;4831918;29;20695;-65
2021/12/30 05:15:51;;;;;;;128.60;69.20;;;;;;;16.34;69.32;99866.66;4811902;29;20081;-64
2021/12/30 05:18:40;;;;;;;136.00;70.70;;;;;;;16.40;69.01;99861.22;4806634;29;20771;-64
2021/12/30 05:21:22;;;;;;;134.65;67.57;;;;;;;16.68;68.14;99860.31;4823797;29;20049;-64
2021/12/30 05:24:11;;;;;;;122.88;63.72;;;;;;;16.81;68.02;99854.59;4818871;29;20050;-64
2021/12/30 05:26:53;;;;;;;129.05;65.47;;;;;;;17.00;68.95;99859.94;4825581;29;20150;-63
2021/12/30 05:29:48;;;;;;;118.53;61.38;;;;;;;16.45;66.54;99859.31;4823986;29;20489;-64
2021/12/30 05:32:23;;;;;;;118.60;58.85;;;;;;;17.27;64.29;99859.81;4823228;29;20050;-64
2021/12/30 05:35:13;;;;;;;111.40;58.55;;;;;;;16.85;64.23;99857.91;4825656;29;20061;-64
2021/12/30 05:37:55;;;;;;;110.25;59.22;;;;;;;17.33;64.09;99851.75;4805124;29;20118;-65
2021/12/30 05:40:51;;;;;;;113.00;60.58;;;;;;;17.62;63.93;99855.88;4825061;29;20125;-64
2021/12/30 05:43:26;;;;;;;123.03;59.85;;;;;;;17.03;66.19;99859.00;4825731;29;20097;-65
2021/12/30 05:46:15;;;;;;;113.82;57.70;;;;;;;17.25;63.78;99848.59;4822226;29;20774;-64
2021/12/30 05:49:04;;;;;;;113.47;58.00;;;;;;;16.63;62.79;99851.78;4822932;29;20094;-63
2021/12/30 05:51:52;;;;;;;110.07;58.97;;;;;;;16.85;66.52;99842.28;4827664;29;20073;-67
2021/12/30 05:54:42;;;;;;;97.10;54.50;;;;;;;17.48;61.91;99845.97;4814712;29;20238;-65
2021/12/30 05:57:34;;;;;;;113.20;55.17;;;;;;;17.63;62.75;99848.00;4824405;29;20149;-64
2021/12/30 06:00:26;;;;;;;108.35;58.15;;;;;;;17.53;60.60;99846.63;4825702;29;20062;-66
2021/12/30 06:03:08;;;;;;;106.35;57.70;;;;;;;17.88;59.27;99838.25;4824651;29;20162;-65
2021/12/30 06:05:57;;;;;;;108.05;53.92;;;;;;;17.68;59.70;99838.22;4825220;29;20046;-65
2021/12/30 06:08:40;;;;;;;112.57;56.90;;;;;;;18.02;60.73;99839.47;4810305;29;20062;-68
2021/12/30 06:11:29;;;;;;;110.72;57.75;;;;;;;18.43;61.24;99829.88;4824189;29;20057;-68
2021/12/30 06:14:17;;;;;;;128.18;57.53;;;;;;;18.80;62.47;99832.56;4824925;29;20046;-69
2021/12/30 06:16:59;;;;;;;117.22;58.72;;;;;;;18.46;59.00;99825.34;4821126;29;20073;-65
2021/12/30 06:19:48;;;;;;;96.32;51.53;;;;;;;18.35;56.80;99819.78;4823786;29;20059;-66
2021/12/30 06:22:30;;;;;;;106.82;53.22;;;;;;;18.43;57.20;99820.28;4816435;29;20061;-66
2021/12/30 06:25:25;;;;;;;102.32;52.97;;;;;;;18.57;55.71;99817.94;4818911;29;20064;-65
2021/12/30 06:28:03;;;;;;;101.15;53.40;;;;;;;18.62;56.57;99820.34;4829166;29;20050;-64
2021/12/30 06:30:52;;;;;;;101.70;51.17;;;;;;;18.95;53.76;99820.56;4818126;29;20059;-64
2021/12/30 06:33:33;;;;;;;98.13;51.47;;;;;;;18.67;53.09;99819.25;4824900;29;20061;-62
2021/12/30 06:36:22;;;;;;;93.80;50.42;;;;;;;18.51;52.72;99817.34;4822820;29;20057;-65
2021/12/30 06:39:05;;;;;;;98.68;49.67;;;;;;;18.54;54.85;99810.22;4833404;29;20070;-64
2021/12/30 06:41:54;;;;;;;88.85;47.47;;;;;;;18.56;57.16;99802.31;4822916;29;20103;-64
2021/12/30 06:44:42;;;;;;;94.55;49.72;;;;;;;18.65;57.19;99810.63;4821038;29;20058;-63
2021/12/30 06:47:37;;;;;;;85.20;45.50;;;;;;;18.72;55.38;99806.81;4830227;29;20111;-63
2021/12/30 06:50:15;;;;;;;82.57;43.53;;;;;;;18.34;51.69;99810.25;4828544;29;20122;-63
2021/12/30 06:53:08;;;;;;;87.15;45.47;;;;;;;18.16;52.56;99805.81;4827872;29;20060;-64
2021/12/30 06:55:45;;;;;;;90.75;46.67;;;;;;;18.36;52.39;99809.25;4816545;29;20636;-63
2021/12/30 06:58:40;;;;;;;93.55;48.40;;;;;;;18.73;51.79;99800.69;4818763;29;20503;-63
2021/12/30 07:01:16;;;;;;;101.78;48.88;;;;;;;18.58;52.38;99796.16;4818083;29;20516;-65
2021/12/30 07:04:12;;;;;;;93.35;44.35;;;;;;;18.38;52.04;99787.47;4819765;29;20058;-65
2021/12/30 07:06:48;;;;;;;96.72;45.63;;;;;;;18.30;51.56;99788.66;4820930;29;20047;-64
2021/12/30 07:09:36;;;;;;;93.53;48.80;;;;;;;18.61;52.69;99780.34;4826417;29;20058;-64
2021/12/30 07:12:18;;;;;;;98.68;48.60;;;;;;;18.71;51.45;99767.72;4826314;29;20058;-64
2021/12/30 07:15:13;;;;;;;104.57;48.30;;;;;;;18.87;49.59;99765.25;4826508;29;20053;-66
2021/12/30 07:18:01;;;;;;;89.88;46.17;;;;;;;19.03;50.66;99755.78;4831308;29;20149;-63
2021/12/30 07:20:50;;;;;;;85.95;45.15;;;;;;;18.77;50.24;99746.53;4794612;29;20062;-64
2021/12/30 07:23:32;;;;;;;84.20;41.58;;;;;;;18.84;49.60;99747.09;4802013;29;20064;-64
2021/12/30 07:26:21;;;;;;;60.45;31.85;;;;;;;18.65;46.10;99737.53;4803842;29;20115;-64
2021/12/30 07:29:04;;;;;;;66.30;34.67;;;;;;;18.64;43.95;99732.38;4803777;29;20392;-64
2021/12/30 07:31:54;;;;;;;69.57;33.90;;;;;;;18.69;46.62;99718.19;4802963;29;20445;-64
2021/12/30 07:34:36;;;;;;;66.65;33.33;;;;;;;18.60;45.78;99713.38;4803854;29;20369;-64
2021/12/30 07:37:24;;;;;;;64.65;34.75;;;;;;;18.86;46.12;99709.56;4803983;29;20046;-65
2021/12/30 07:40:12;;;;;;;76.93;36.38;;;;;;;18.94;46.61;99707.44;4810912;29;20061;-65
2021/12/30 07:43:00;;;;;;;69.70;35.88;;;;;;;19.13;45.51;99706.56;4822971;29;20054;-65
2021/12/30 07:45:42;;;;;;;60.95;33.80;;;;;;;19.19;45.61;99696.66;4823004;29;20050;-65
2021/12/30 07:48:31;;;;;;;74.28;36.10;;;;;;;19.14;44.75;99698.66;4823820;29;20050;-65
2021/12/30 07:51:14;;;;;;;73.65;32.38;;;;;;;19.21;45.75;99683.53;4819936;29;20054;-65
2021/12/30 07:54:03;;;;;;;58.90;30.73;;;;;;;18.97;42.38;99686.41;4802831;29;20599;-65
2021/12/30 07:56:45;;;;;;;61.92;31.65;;;;;;;18.68;42.68;99692.16;4803002;29;20056;-65
2021/12/30 07:59:34;;;;;;;65.07;31.40;;;;;;;18.85;43.22;99692.19;4802495;29;20058;-66
2021/12/30 08:02:17;;;;;;;48.55;26.25;;;;;;;18.96;41.59;99684.72;4802690;29;20051;-65
2021/12/30 08:05:05;;;;;;;50.63;24.95;;;;;;;19.15;41.69;99671.63;4787263;29;20149;-65
2021/12/30 08:07:48;;;;;;;52.78;28.02;;;;;;;18.76;42.82;99676.16;4803428;29;20487;-65
2021/12/30 08:10:37;;;;;;;69.35;30.92;;;;;;;18.91;42.83;99668.44;4803292;29;20071;-65
2021/12/30 08:13:20;;;;;;;56.88;30.10;;;;;;;18.91;43.66;99664.97;4802184;29;20058;-65
2021/12/30 08:16:14;;;;;;;58.17;30.20;;;;;;;18.94;43.72;99652.59;4801944;29;20137;-65
2021/12/30 08:19:04;;;;;;;60.88;31.85;;;;;;;18.87;42.05;99671.25;4803198;29;20058;-65
2021/12/30 08:21:46;;;;;;;56.47;29.83;;;;;;;18.84;42.32;99658.31;4803203;29;20061;-66
2021/12/30 08:24:39;;;;;;;54.95;29.23;;;;;;;18.71;41.57;99658.06;4786854;29;20070;-65
2021/12/30 08:27:19;;;;;;;65.70;27.98;;;;;;;18.80;41.54;99662.03;4786470;29;20450;-65
2021/12/30 08:30:09;;;;;;;49.83;27.63;;;;;;;18.91;40.96;99655.38;4802446;29;20091;-66
2021/12/30 08:32:52;;;;;;;51.45;27.05;;;;;;;18.71;40.52;99648.47;4803198;29;20483;-65
2021/12/30 08:35:40;;;;;;;53.47;26.30;;;;;;;18.85;41.19;99653.03;4806347;29;20058;-66
2021/12/30 08:38:17;;;;;;;57.80;29.23;;;;;;;18.77;41.65;99647.34;4805865;29;20046;-65
2021/12/30 08:41:04;;;;;;;65.10;28.77;;;;;;;18.80;42.19;99639.38;4807300;29;20057;-66
2021/12/30 08:43:52;;;;;;;50.38;26.48;;;;;;;18.83;42.75;99634.00;4789766;29;20054;-65
2021/12/30 08:46:34;;;;;;;54.53;27.05;;;;;;;18.70;43.16;99630.28;4789785;29;20058;-65
2021/12/30 08:49:23;;;;;;;58.10;26.33;;;;;;;18.73;42.66;99636.22;4805068;29;20062;-65
2021/12/30 08:52:06;;;;;;;;;;;;;;;18.80;41.72;99630.69;4806634;29;20069;-65
2021/12/30 08:54:59;;;;;;;51.10;26.67;;;;;;;18.84;42.32;99627.00;4805409;29;19936;-65
2021/12/30 08:57:42;;;;;;;49.80;28.13;;;;;;;18.77;42.78;99626.44;4805436;29;20062;-65
2021/12/30 09:00:41;;;;;;;48.42;24.95;;;;;;;18.75;41.10;99612.66;4805488;29;20080;-66
2021/12/30 09:03:31;;;;;;;51.92;25.85;;;;;;;18.61;40.25;99621.13;4805276;29;20066;-65
2021/12/30 09:06:20;;;;;;;52.45;25.73;;;;;;;18.46;40.56;99616.59;4804287;29;20535;-65
2021/12/30 09:09:02;;;;;;;54.35;27.15;;;;;;;18.53;41.40;99618.00;4805378;29;20058;-66
2021/12/30 09:11:52;;;;;;;57.15;27.23;;;;;;;18.56;41.20;99612.66;4805256;29;20066;-65
2021/12/30 09:14:39;;;;;;;58.38;26.75;;;;;;;18.62;42.95;99611.53;4804700;29;20532;-65
2021/12/30 09:17:34;;;;;;;54.25;27.20;;;;;;;18.37;41.15;99617.03;4804580;29;20054;-65
2021/12/30 09:20:11;;;;;;;50.55;26.08;;;;;;;18.49;43.25;99616.47;4805649;29;20054;-65
2021/12/30 09:23:03;;;;;;;60.22;26.17;;;;;;;18.58;40.59;99626.50;4805573;29;20055;-65
2021/12/30 09:25:53;;;;;;;52.92;25.45;;;;;;;18.60;41.66;99618.56;4804822;29;20729;-66
2021/12/30 09:28:34;;;;;;;52.10;26.13;;;;;;;18.61;42.40;99615.91;4821348;29;20078;-65
2021/12/30 09:31:22;;;;;;;44.80;26.02;;;;;;;18.46;40.88;99621.81;4827570;29;20050;-64
2021/12/30 09:34:04;;;;;;;55.05;27.17;;;;;;;18.60;41.82;99622.03;4829538;29;20064;-66
2021/12/30 09:36:52;;;;;;;46.88;25.80;;;;;;;18.64;42.88;99607.94;4828017;29;20187;-65
2021/12/30 09:39:34;;;;;;;59.42;25.73;;;;;;;18.68;41.49;99606.00;4825988;29;20046;-66
2021/12/30 09:42:22;;;;;;;55.70;26.10;;;;;;;18.66;43.10;99608.72;4828270;29;20050;-64
2021/12/30 09:45:04;;;;;;;49.85;25.40;;;;;;;18.43;41.93;99616.75;4827372;29;20065;-66
2021/12/30 09:48:04;;;;;;;59.22;25.88;;;;;;;18.32;41.99;99621.63;4826476;29;20056;-63
2021/12/30 09:50:54;;;;;;;57.67;25.65;;;;;;;18.38;42.96;99612.66;4823656;29;20522;-64
2021/12/30 09:53:42;;;;;;;47.38;25.10;;;;;;;18.27;44.16;99614.03;4826246;29;20387;-65
2021/12/30 09:56:24;;;;;;;54.10;26.60;;;;;;;18.26;45.17;99606.25;4827016;29;20145;-65
2021/12/30 09:59:13;;;;;;;55.65;26.77;;;;;;;18.14;42.42;99610.25;4822768;29;20056;-65
2021/12/30 10:01:56;;;;;;;51.90;25.25;;;;;;;18.02;42.84;99602.16;4822036;29;20138;-65
2021/12/30 10:04:45;;;;;;;63.05;27.05;;;;;;;18.05;46.05;99605.47;4813689;29;20066;-65
2021/12/30 10:07:27;;;;;;;56.58;27.77;;;;;;;18.10;44.55;99608.72;4826543;29;20152;-65
2021/12/30 10:10:39;;;;;;;47.33;25.48;;;;;;;17.94;46.52;99608.56;4826700;29;20065;-66
2021/12/30 10:13:32;;;;;;;52.25;28.55;;;;;;;17.96;47.07;99605.88;4827979;29;20150;-66
2021/12/30 10:16:21;;;;;;;74.68;39.53;;;;;;;17.86;45.29;99605.47;4829817;29;20081;-65
2021/12/30 10:19:07;;;;;;;53.22;29.67;;;;;;;17.97;46.42;99604.97;4817416;29;20042;-65
2021/12/30 10:21:56;;;;;;;63.33;32.77;;;;;;;18.03;50.16;99602.09;4828468;29;20065;-65
2021/12/30 10:24:38;;;;;;;58.60;27.85;;;;;;;18.07;47.85;99603.63;4815809;29;20905;-65
2021/12/30 10:27:36;;;;;;;56.85;28.40;;;;;;;18.05;50.14;99596.78;4805237;29;20042;-65
2021/12/30 10:30:40;;;;;;;58.83;28.42;;;;;;;18.17;50.03;99596.25;4818562;29;20057;-65
2021/12/30 10:33:36;;;;;;;60.40;29.92;;;;;;;18.15;53.63;99592.84;4828253;29;20054;-66
2021/12/30 10:36:22;;;;;;;55.38;29.45;;;;;;;18.03;45.40;99598.66;4818224;29;20255;-66
2021/12/30 10:39:20;;;;;;;61.10;28.52;;;;;;;17.96;49.16;99598.06;4826005;29;20052;-65
2021/12/30 10:42:05;;;;;;;59.33;29.27;;;;;;;17.82;47.92;99605.66;4827197;29;20490;-64
2021/12/30 10:45:06;;;;;;;63.05;27.80;;;;;;;17.78;53.09;99606.72;4824374;29;20114;-64
2021/12/30 10:48:00;;;;;;;48.65;27.77;;;;;;;17.69;53.77;99609.72;4819487;29;20054;-64
2021/12/30 10:50:50;;;;;;;59.15;27.02;;;;;;;17.45;60.75;99619.44;4822478;29;20503;-64
2021/12/30 10:53:37;;;;;;;47.63;26.08;;;;;;;17.34;60.61;99619.03;4823555;29;20122;-65
2021/12/30 10:56:31;;;;;;;57.05;28.05;;;;;;;17.24;57.13;99628.16;4809007;29;20057;-65
2021/12/30 10:59:20;;;;;;;56.45;27.58;;;;;;;17.16;56.91;99624.09;4824134;29;20050;-65
2021/12/30 11:02:17;;;;;;;56.08;27.50;;;;;;;17.25;60.74;99606.38;4822735;29;20056;-65
2021/12/30 11:05:10;;;;;;;67.97;32.75;;;;;;;17.18;53.74;99608.41;4799002;29;20053;-69
2021/12/30 11:07:57;;;;;;;56.67;30.20;;;;;;;17.27;62.18;99607.19;4825067;29;20080;-64
2021/12/30 11:10:46;;;;;;;61.33;30.42;;;;;;;17.15;60.60;99606.81;4825147;29;20054;-64
2021/12/30 11:13:28;;;;;;;65.30;32.28;;;;;;;17.20;59.07;99610.06;4824329;29;20064;-65
2021/12/30 11:16:22;;;;;;;61.45;30.08;;;;;;;17.21;54.74;99601.34;4824228;29;20058;-66
2021/12/30 11:19:12;;;;;;;60.72;29.63;;;;;;;17.23;56.31;99601.28;4824784;29;20076;-64
2021/12/30 11:22:05;;;;;;;56.65;27.40;;;;;;;17.24;56.17;99599.53;4820670;29;20054;-65
2021/12/30 11:24:49;;;;;;;57.65;29.00;;;;;;;17.25;57.50;99614.19;4816035;29;20068;-66
2021/12/30 11:27:39;;;;;;;67.93;30.70;;;;;;;17.15;64.35;99601.59;4812227;29;20165;-66
2021/12/30 11:30:21;;;;;;;69.85;29.17;;;;;;;17.09;60.98;99603.59;4820625;29;20081;-66
2021/12/30 11:33:10;;;;;;;70.10;30.08;;;;;;;17.03;64.60;99590.84;4803205;29;20115;-65
2021/12/30 11:35:58;;;;;;;67.18;30.20;;;;;;;16.94;66.15;99592.06;4806645;29;20074;-67
2021/12/30 11:38:46;;;;;;;71.20;30.30;;;;;;;16.78;66.67;99588.38;4814085;29;20142;-66
2021/12/30 11:41:32;;;;;;;65.32;28.48;;;;;;;16.72;67.77;99599.06;4809985;29;20058;-66
2021/12/30 11:44:47;;;;;;;58.92;27.95;;;;;;;16.60;70.51;99596.91;4813255;29;20058;-66
2021/12/30 11:47:36;;;;;;;63.20;29.75;;;;;;;16.44;69.24;99602.69;4810276;29;20061;-66
2021/12/30 11:50:34;;;;;;;64.30;29.00;;;;;;;16.29;70.88;99595.50;4813053;29;20053;-64
2021/12/30 11:53:19;;;;;;;71.20;30.08;;;;;;;16.19;72.93;99601.97;4817680;29;20546;-63
2021/12/30 11:56:25;;;;;;;70.70;31.30;;;;;;;16.06;73.35;99600.72;4820841;29;20051;-63
2021/12/30 11:59:10;;;;;;;79.68;30.38;;;;;;;15.91;75.39;99609.09;4821920;29;20177;-64
2021/12/30 12:01:58;;;;;;;64.35;31.02;;;;;;;15.73;74.88;99617.53;4820387;29;20135;-64
2021/12/30 12:04:47;;;;;;;80.35;30.80;;;;;;;15.58;77.50;99617.19;4825481;29;20083;-66
2021/12/30 12:08:07;;;;;;;69.97;32.10;;;;;;;15.44;78.00;99627.19;4828699;29;20474;-65
2021/12/30 12:11:17;;;;;;;72.43;32.10;;;;;;;15.26;77.47;99628.66;4833633;29;20054;-64
2021/12/30 12:14:21;;;;;;;85.35;32.97;;;;;;;15.09;81.33;99630.13;4824889;29;20530;-62
2021/12/30 12:17:32;;;;;;;81.60;31.25;;;;;;;14.88;78.46;99629.94;4823443;29;20054;-66
2021/12/30 12:20:34;;;;;;;81.00;31.88;;;;;;;14.70;79.75;99638.28;4819155;29;20502;-65
2021/12/30 12:23:42;;;;;;;79.47;31.23;;;;;;;14.62;81.47;99624.72;4830534;29;20083;-65
2021/12/30 12:26:24;;;;;;;87.43;32.35;;;;;;;14.48;82.19;99629.50;4818722;29;20142;-66
2021/12/30 12:29:48;;;;;;;75.53;31.10;;;;;;;14.28;84.75;99624.03;4816540;29;20039;-65
2021/12/30 12:32:48;;;;;;;71.50;32.58;;;;;;;14.31;84.74;99629.09;4819888;29;20062;-64
2021/12/30 12:35:40;;;;;;;90.88;33.55;;;;;;;14.29;85.80;99636.06;4819874;29;20058;-66
2021/12/30 12:38:42;;;;;;;76.82;35.28;;;;;;;14.12;86.58;99637.44;4825981;29;20050;-68
2021/12/30 12:41:32;;;;;;;83.55;34.63;;;;;;;14.02;88.06;99638.59;4827084;29;20054;-68
2021/12/30 12:44:25;;;;;;;;;;;;;;;13.92;86.99;99651.84;4828977;29;20141;-65
2021/12/30 12:47:15;;;;;;;78.38;34.78;;;;;;;13.78;90.12;99660.84;4827260;29;19981;-65